sensor_id;sensor_type;location;lat;lon;timestamp;P1;durP1;ratioP1;P2;durP2;ratioP2
6053;SDS011;3055;50.886;14.814;2023-05-07T00:01:41;17.70;;;13.73;;
6053;SDS011;3055;50.886;14.814;2023-05-07T00:04:10;15.87;;;13.27;;
6053;SDS011;3055;50.886;14.814;2023-05-07T00:06:38;17.33;;;13.10;;
6053;SDS011;3055;50.886;14.814;2023-05-07T00:09:06;17.93;;;13.43;;
6053;SDS011;3055;50.886;14.814;2023-05-07T00:11:33;17.77;;;14.73;;
6053;SDS011;3055;50.886;14.814;2023-05-07T00:14:03;20.50;;;15.30;;
6053;SDS011;3055;50.886;14.814;2023-05-07T00:16:30;18.93;;;14.30;;
6053;SDS011;3055;50.886;14.814;2023-05-07T00:18:57;19.80;;;15.10;;
6053;SDS011;3055;50.886;14.814;2023-05-07T00:21:26;19.23;;;14.60;;
6053;SDS011;3055;50.886;14.814;2023-05-07T00:23:53;21.40;;;15.43;;
6053;SDS011;3055;50.886;14.814;2023-05-07T00:26:20;21.23;;;15.10;;
6053;SDS011;3055;50.886;14.814;2023-05-07T00:28:47;25.70;;;16.03;;
6053;SDS011;3055;50.886;14.814;2023-05-07T00:31:15;20.90;;;15.43;;
6053;SDS011;3055;50.886;14.814;2023-05-07T00:33:42;21.13;;;14.77;;
6053;SDS011;3055;50.886;14.814;2023-05-07T00:36:09;21.07;;;15.20;;
6053;SDS011;3055;50.886;14.814;2023-05-07T00:38:37;21.97;;;15.47;;
6053;SDS011;3055;50.886;14.814;2023-05-07T00:41:04;23.23;;;15.73;;
6053;SDS011;3055;50.886;14.814;2023-05-07T00:43:31;20.00;;;13.50;;
6053;SDS011;3055;50.886;14.814;2023-05-07T00:45:58;21.50;;;14.50;;
6053;SDS011;3055;50.886;14.814;2023-05-07T00:48:26;23.10;;;15.27;;
6053;SDS011;3055;50.886;14.814;2023-05-07T00:50:53;20.53;;;14.10;;
6053;SDS011;3055;50.886;14.814;2023-05-07T00:53:20;20.23;;;13.83;;
6053;SDS011;3055;50.886;14.814;2023-05-07T00:55:49;18.20;;;12.57;;
6053;SDS011;3055;50.886;14.814;2023-05-07T00:58:17;18.33;;;13.30;;
6053;SDS011;3055;50.886;14.814;2023-05-07T01:00:44;18.43;;;13.77;;
6053;SDS011;3055;50.886;14.814;2023-05-07T01:03:11;17.90;;;12.80;;
6053;SDS011;3055;50.886;14.814;2023-05-07T01:05:41;16.40;;;11.60;;
6053;SDS011;3055;50.886;14.814;2023-05-07T01:08:09;14.87;;;11.33;;
6053;SDS011;3055;50.886;14.814;2023-05-07T01:10:37;14.47;;;10.47;;
6053;SDS011;3055;50.886;14.814;2023-05-07T01:13:09;13.60;;;10.77;;
6053;SDS011;3055;50.886;14.814;2023-05-07T01:15:37;16.07;;;11.30;;
6053;SDS011;3055;50.886;14.814;2023-05-07T01:18:05;16.07;;;11.27;;
6053;SDS011;3055;50.886;14.814;2023-05-07T01:20:33;15.30;;;11.63;;
6053;SDS011;3055;50.886;14.814;2023-05-07T01:23:01;14.67;;;11.93;;
6053;SDS011;3055;50.886;14.814;2023-05-07T01:25:30;16.97;;;12.10;;
6053;SDS011;3055;50.886;14.814;2023-05-07T01:27:57;15.73;;;10.90;;
6053;SDS011;3055;50.886;14.814;2023-05-07T01:30:29;12.87;;;10.20;;
6053;SDS011;3055;50.886;14.814;2023-05-07T01:32:57;13.27;;;10.60;;
6053;SDS011;3055;50.886;14.814;2023-05-07T01:35:30;14.53;;;10.10;;
6053;SDS011;3055;50.886;14.814;2023-05-07T01:38:03;15.20;;;10.77;;
6053;SDS011;3055;50.886;14.814;2023-05-07T01:40:31;14.37;;;10.37;;
6053;SDS011;3055;50.886;14.814;2023-05-07T01:42:59;13.80;;;10.17;;
6053;SDS011;3055;50.886;14.814;2023-05-07T01:45:27;15.03;;;11.07;;
6053;SDS011;3055;50.886;14.814;2023-05-07T01:47:55;13.50;;;11.17;;
6053;SDS011;3055;50.886;14.814;2023-05-07T01:50:22;14.30;;;11.13;;
6053;SDS011;3055;50.886;14.814;2023-05-07T01:52:50;15.30;;;11.63;;
6053;SDS011;3055;50.886;14.814;2023-05-07T01:55:19;16.10;;;12.03;;
6053;SDS011;3055;50.886;14.814;2023-05-07T01:57:46;17.30;;;11.77;;
6053;SDS011;3055;50.886;14.814;2023-05-07T02:00:13;19.63;;;13.03;;
6053;SDS011;3055;50.886;14.814;2023-05-07T02:02:41;18.27;;;13.83;;
6053;SDS011;3055;50.886;14.814;2023-05-07T02:05:08;21.87;;;14.97;;
6053;SDS011;3055;50.886;14.814;2023-05-07T02:07:35;19.90;;;13.90;;
6053;SDS011;3055;50.886;14.814;2023-05-07T02:10:02;22.53;;;14.97;;
6053;SDS011;3055;50.886;14.814;2023-05-07T02:12:31;20.83;;;16.43;;
6053;SDS011;3055;50.886;14.814;2023-05-07T02:14:58;22.03;;;16.37;;
6053;SDS011;3055;50.886;14.814;2023-05-07T02:17:25;23.33;;;17.67;;
6053;SDS011;3055;50.886;14.814;2023-05-07T02:19:52;23.13;;;17.67;;
6053;SDS011;3055;50.886;14.814;2023-05-07T02:22:19;24.20;;;18.30;;
6053;SDS011;3055;50.886;14.814;2023-05-07T02:24:46;28.00;;;19.17;;
6053;SDS011;3055;50.886;14.814;2023-05-07T02:27:14;27.00;;;18.37;;
6053;SDS011;3055;50.886;14.814;2023-05-07T02:29:42;25.67;;;18.27;;
6053;SDS011;3055;50.886;14.814;2023-05-07T02:32:09;24.77;;;17.10;;
6053;SDS011;3055;50.886;14.814;2023-05-07T02:34:36;25.33;;;18.30;;
6053;SDS011;3055;50.886;14.814;2023-05-07T02:37:03;24.30;;;18.43;;
6053;SDS011;3055;50.886;14.814;2023-05-07T02:39:30;25.17;;;18.50;;
6053;SDS011;3055;50.886;14.814;2023-05-07T02:41:57;26.70;;;18.63;;
6053;SDS011;3055;50.886;14.814;2023-05-07T02:44:24;25.17;;;18.67;;
6053;SDS011;3055;50.886;14.814;2023-05-07T02:46:53;27.00;;;19.60;;
6053;SDS011;3055;50.886;14.814;2023-05-07T02:49:20;27.23;;;18.27;;
6053;SDS011;3055;50.886;14.814;2023-05-07T02:51:47;28.90;;;18.80;;
6053;SDS011;3055;50.886;14.814;2023-05-07T02:54:14;27.73;;;18.83;;
6053;SDS011;3055;50.886;14.814;2023-05-07T02:56:42;28.73;;;19.50;;
6053;SDS011;3055;50.886;14.814;2023-05-07T02:59:09;25.27;;;18.60;;
6053;SDS011;3055;50.886;14.814;2023-05-07T03:01:36;25.07;;;18.63;;
6053;SDS011;3055;50.886;14.814;2023-05-07T03:04:05;27.13;;;18.07;;
6053;SDS011;3055;50.886;14.814;2023-05-07T03:06:32;24.67;;;18.50;;
6053;SDS011;3055;50.886;14.814;2023-05-07T03:08:59;23.07;;;17.30;;
6053;SDS011;3055;50.886;14.814;2023-05-07T03:11:26;24.40;;;18.20;;
6053;SDS011;3055;50.886;14.814;2023-05-07T03:13:53;25.13;;;17.93;;
6053;SDS011;3055;50.886;14.814;2023-05-07T03:16:20;24.97;;;18.23;;
6053;SDS011;3055;50.886;14.814;2023-05-07T03:18:47;26.33;;;18.30;;
6053;SDS011;3055;50.886;14.814;2023-05-07T03:21:16;23.30;;;18.37;;
6053;SDS011;3055;50.886;14.814;2023-05-07T03:23:44;22.40;;;17.87;;
6053;SDS011;3055;50.886;14.814;2023-05-07T03:26:11;26.53;;;18.60;;
6053;SDS011;3055;50.886;14.814;2023-05-07T03:28:38;25.83;;;17.77;;
6053;SDS011;3055;50.886;14.814;2023-05-07T03:31:05;25.00;;;18.93;;
6053;SDS011;3055;50.886;14.814;2023-05-07T03:33:32;25.77;;;18.47;;
6053;SDS011;3055;50.886;14.814;2023-05-07T03:36:00;27.33;;;18.30;;
6053;SDS011;3055;50.886;14.814;2023-05-07T03:38:28;24.67;;;18.97;;
6053;SDS011;3055;50.886;14.814;2023-05-07T03:40:55;27.60;;;18.57;;
6053;SDS011;3055;50.886;14.814;2023-05-07T03:43:23;25.83;;;17.27;;
6053;SDS011;3055;50.886;14.814;2023-05-07T03:45:50;28.53;;;18.40;;
6053;SDS011;3055;50.886;14.814;2023-05-07T03:48:17;26.53;;;18.10;;
6053;SDS011;3055;50.886;14.814;2023-05-07T03:50:44;27.43;;;19.03;;
6053;SDS011;3055;50.886;14.814;2023-05-07T03:53:11;26.67;;;18.23;;
6053;SDS011;3055;50.886;14.814;2023-05-07T03:55:40;25.77;;;18.50;;
6053;SDS011;3055;50.886;14.814;2023-05-07T03:58:07;23.63;;;16.67;;
6053;SDS011;3055;50.886;14.814;2023-05-07T04:00:34;26.10;;;16.97;;
6053;SDS011;3055;50.886;14.814;2023-05-07T04:03:03;23.07;;;16.60;;
6053;SDS011;3055;50.886;14.814;2023-05-07T04:05:30;28.37;;;17.60;;
6053;SDS011;3055;50.886;14.814;2023-05-07T04:07:57;23.27;;;16.67;;
6053;SDS011;3055;50.886;14.814;2023-05-07T04:10:24;21.43;;;15.70;;
6053;SDS011;3055;50.886;14.814;2023-05-07T04:12:54;21.00;;;15.90;;
6053;SDS011;3055;50.886;14.814;2023-05-07T04:15:22;19.13;;;15.67;;
6053;SDS011;3055;50.886;14.814;2023-05-07T04:17:49;22.20;;;15.07;;
6053;SDS011;3055;50.886;14.814;2023-05-07T04:20:17;20.23;;;15.97;;
6053;SDS011;3055;50.886;14.814;2023-05-07T04:22:44;22.73;;;15.97;;
6053;SDS011;3055;50.886;14.814;2023-05-07T04:25:11;18.63;;;14.20;;
6053;SDS011;3055;50.886;14.814;2023-05-07T04:27:38;22.23;;;14.83;;
6053;SDS011;3055;50.886;14.814;2023-05-07T04:30:07;19.57;;;15.10;;
6053;SDS011;3055;50.886;14.814;2023-05-07T04:32:34;21.33;;;14.93;;
6053;SDS011;3055;50.886;14.814;2023-05-07T04:35:02;19.50;;;14.10;;
6053;SDS011;3055;50.886;14.814;2023-05-07T04:37:31;18.73;;;14.37;;
6053;SDS011;3055;50.886;14.814;2023-05-07T04:39:58;17.67;;;14.43;;
6053;SDS011;3055;50.886;14.814;2023-05-07T04:42:25;19.07;;;13.50;;
6053;SDS011;3055;50.886;14.814;2023-05-07T04:44:53;21.03;;;14.53;;
6053;SDS011;3055;50.886;14.814;2023-05-07T04:47:21;16.93;;;13.20;;
6053;SDS011;3055;50.886;14.814;2023-05-07T04:49:48;19.10;;;13.73;;
6053;SDS011;3055;50.886;14.814;2023-05-07T04:52:15;19.00;;;14.10;;
6053;SDS011;3055;50.886;14.814;2023-05-07T04:54:42;16.90;;;14.20;;
6053;SDS011;3055;50.886;14.814;2023-05-07T04:57:09;17.70;;;14.17;;
6053;SDS011;3055;50.886;14.814;2023-05-07T04:59:37;15.97;;;12.73;;
6053;SDS011;3055;50.886;14.814;2023-05-07T05:02:04;16.63;;;13.57;;
6053;SDS011;3055;50.886;14.814;2023-05-07T05:04:32;15.07;;;12.63;;
6053;SDS011;3055;50.886;14.814;2023-05-07T05:06:59;16.27;;;13.37;;
6053;SDS011;3055;50.886;14.814;2023-05-07T05:09:28;16.33;;;12.20;;
6053;SDS011;3055;50.886;14.814;2023-05-07T05:11:56;15.13;;;12.67;;
6053;SDS011;3055;50.886;14.814;2023-05-07T05:14:23;17.10;;;12.70;;
6053;SDS011;3055;50.886;14.814;2023-05-07T05:16:50;15.40;;;11.97;;
6053;SDS011;3055;50.886;14.814;2023-05-07T05:19:17;14.23;;;11.47;;
6053;SDS011;3055;50.886;14.814;2023-05-07T05:21:45;14.57;;;11.43;;
6053;SDS011;3055;50.886;14.814;2023-05-07T05:24:12;12.17;;;10.67;;
6053;SDS011;3055;50.886;14.814;2023-05-07T05:26:40;13.13;;;11.43;;
6053;SDS011;3055;50.886;14.814;2023-05-07T05:29:07;12.63;;;11.10;;
6053;SDS011;3055;50.886;14.814;2023-05-07T05:31:34;12.73;;;10.83;;
6053;SDS011;3055;50.886;14.814;2023-05-07T05:34:01;12.17;;;10.87;;
6053;SDS011;3055;50.886;14.814;2023-05-07T05:36:29;11.77;;;10.57;;
6053;SDS011;3055;50.886;14.814;2023-05-07T05:38:58;12.33;;;11.00;;
6053;SDS011;3055;50.886;14.814;2023-05-07T05:41:25;13.30;;;10.87;;
6053;SDS011;3055;50.886;14.814;2023-05-07T05:43:52;10.40;;;9.30;;
6053;SDS011;3055;50.886;14.814;2023-05-07T05:46:19;9.67;;;8.67;;
6053;SDS011;3055;50.886;14.814;2023-05-07T05:48:46;10.57;;;9.27;;
6053;SDS011;3055;50.886;14.814;2023-05-07T05:51:13;8.83;;;7.93;;
6053;SDS011;3055;50.886;14.814;2023-05-07T05:53:40;9.20;;;7.70;;
6053;SDS011;3055;50.886;14.814;2023-05-07T05:56:08;7.23;;;6.37;;
6053;SDS011;3055;50.886;14.814;2023-05-07T05:58:35;6.33;;;5.73;;
6053;SDS011;3055;50.886;14.814;2023-05-07T06:01:03;6.67;;;6.07;;
6053;SDS011;3055;50.886;14.814;2023-05-07T06:03:30;5.87;;;5.27;;
6053;SDS011;3055;50.886;14.814;2023-05-07T06:05:58;6.07;;;5.57;;
6053;SDS011;3055;50.886;14.814;2023-05-07T06:08:28;4.73;;;4.33;;
6053;SDS011;3055;50.886;14.814;2023-05-07T06:10:56;4.63;;;4.23;;
6053;SDS011;3055;50.886;14.814;2023-05-07T06:13:24;5.07;;;4.63;;
6053;SDS011;3055;50.886;14.814;2023-05-07T06:15:51;5.10;;;4.60;;
6053;SDS011;3055;50.886;14.814;2023-05-07T06:18:18;4.50;;;4.10;;
6053;SDS011;3055;50.886;14.814;2023-05-07T06:20:45;5.00;;;4.60;;
6053;SDS011;3055;50.886;14.814;2023-05-07T06:23:13;4.47;;;4.13;;
6053;SDS011;3055;50.886;14.814;2023-05-07T06:25:40;4.30;;;3.93;;
6053;SDS011;3055;50.886;14.814;2023-05-07T06:28:08;4.10;;;3.70;;
6053;SDS011;3055;50.886;14.814;2023-05-07T06:30:37;4.63;;;4.13;;
6053;SDS011;3055;50.886;14.814;2023-05-07T06:33:05;4.20;;;3.80;;
6053;SDS011;3055;50.886;14.814;2023-05-07T06:35:32;4.30;;;3.90;;
6053;SDS011;3055;50.886;14.814;2023-05-07T06:37:59;4.30;;;3.90;;
6053;SDS011;3055;50.886;14.814;2023-05-07T06:40:26;4.20;;;3.80;;
6053;SDS011;3055;50.886;14.814;2023-05-07T06:42:53;3.77;;;3.47;;
6053;SDS011;3055;50.886;14.814;2023-05-07T06:45:21;4.20;;;3.40;;
6053;SDS011;3055;50.886;14.814;2023-05-07T06:47:50;4.00;;;3.70;;
6053;SDS011;3055;50.886;14.814;2023-05-07T06:50:17;4.57;;;4.17;;
6053;SDS011;3055;50.886;14.814;2023-05-07T06:52:44;5.90;;;4.53;;
6053;SDS011;3055;50.886;14.814;2023-05-07T06:55:11;4.70;;;4.13;;
6053;SDS011;3055;50.886;14.814;2023-05-07T06:57:38;4.60;;;4.20;;
6053;SDS011;3055;50.886;14.814;2023-05-07T07:00:05;5.33;;;4.80;;
6053;SDS011;3055;50.886;14.814;2023-05-07T07:02:34;4.97;;;4.57;;
6053;SDS011;3055;50.886;14.814;2023-05-07T07:05:02;4.80;;;4.37;;
6053;SDS011;3055;50.886;14.814;2023-05-07T07:07:30;4.67;;;4.27;;
6053;SDS011;3055;50.886;14.814;2023-05-07T07:09:57;5.20;;;4.70;;
6053;SDS011;3055;50.886;14.814;2023-05-07T07:12:24;5.20;;;4.70;;
6053;SDS011;3055;50.886;14.814;2023-05-07T07:14:51;5.00;;;4.60;;
6053;SDS011;3055;50.886;14.814;2023-05-07T07:17:18;5.10;;;4.70;;
6053;SDS011;3055;50.886;14.814;2023-05-07T07:19:45;5.23;;;4.83;;
6053;SDS011;3055;50.886;14.814;2023-05-07T07:22:13;5.80;;;5.30;;
6053;SDS011;3055;50.886;14.814;2023-05-07T07:24:40;5.70;;;5.20;;
6053;SDS011;3055;50.886;14.814;2023-05-07T07:27:07;6.80;;;4.60;;
6053;SDS011;3055;50.886;14.814;2023-05-07T07:29:34;5.00;;;4.60;;
6053;SDS011;3055;50.886;14.814;2023-05-07T07:32:01;5.80;;;5.10;;
6053;SDS011;3055;50.886;14.814;2023-05-07T07:34:28;5.07;;;4.57;;
6053;SDS011;3055;50.886;14.814;2023-05-07T07:36:55;4.90;;;4.40;;
6053;SDS011;3055;50.886;14.814;2023-05-07T07:39:24;4.83;;;4.43;;
6053;SDS011;3055;50.886;14.814;2023-05-07T07:41:51;5.57;;;4.70;;
6053;SDS011;3055;50.886;14.814;2023-05-07T07:44:18;5.53;;;5.03;;
6053;SDS011;3055;50.886;14.814;2023-05-07T07:46:45;4.90;;;4.50;;
6053;SDS011;3055;50.886;14.814;2023-05-07T07:49:12;4.80;;;4.40;;
6053;SDS011;3055;50.886;14.814;2023-05-07T07:51:40;4.93;;;4.27;;
6053;SDS011;3055;50.886;14.814;2023-05-07T07:54:07;5.07;;;4.27;;
6053;SDS011;3055;50.886;14.814;2023-05-07T07:56:36;4.67;;;4.27;;
6053;SDS011;3055;50.886;14.814;2023-05-07T07:59:03;4.90;;;4.50;;
6053;SDS011;3055;50.886;14.814;2023-05-07T08:01:30;4.60;;;4.20;;
6053;SDS011;3055;50.886;14.814;2023-05-07T08:03:57;6.53;;;4.53;;
6053;SDS011;3055;50.886;14.814;2023-05-07T08:06:24;4.77;;;4.37;;
6053;SDS011;3055;50.886;14.814;2023-05-07T08:08:52;5.93;;;4.30;;
6053;SDS011;3055;50.886;14.814;2023-05-07T08:11:19;4.80;;;4.40;;
6053;SDS011;3055;50.886;14.814;2023-05-07T08:13:48;4.63;;;4.23;;
6053;SDS011;3055;50.886;14.814;2023-05-07T08:16:15;4.03;;;3.73;;
6053;SDS011;3055;50.886;14.814;2023-05-07T08:18:42;6.07;;;4.20;;
6053;SDS011;3055;50.886;14.814;2023-05-07T08:21:09;4.47;;;4.07;;
6053;SDS011;3055;50.886;14.814;2023-05-07T08:23:36;4.47;;;4.07;;
6053;SDS011;3055;50.886;14.814;2023-05-07T08:26:03;4.40;;;4.00;;
6053;SDS011;3055;50.886;14.814;2023-05-07T08:28:39;4.37;;;3.93;;
6053;SDS011;3055;50.886;14.814;2023-05-07T08:31:06;4.47;;;3.87;;
6053;SDS011;3055;50.886;14.814;2023-05-07T08:33:33;5.17;;;4.67;;
6053;SDS011;3055;50.886;14.814;2023-05-07T08:36:00;4.23;;;3.93;;
6053;SDS011;3055;50.886;14.814;2023-05-07T08:38:27;4.80;;;4.00;;
6053;SDS011;3055;50.886;14.814;2023-05-07T08:40:54;4.50;;;4.10;;
6053;SDS011;3055;50.886;14.814;2023-05-07T08:43:21;4.17;;;3.73;;
6053;SDS011;3055;50.886;14.814;2023-05-07T08:45:55;4.17;;;3.77;;
6053;SDS011;3055;50.886;14.814;2023-05-07T08:48:24;4.10;;;3.80;;
6053;SDS011;3055;50.886;14.814;2023-05-07T08:50:53;4.13;;;3.83;;
6053;SDS011;3055;50.886;14.814;2023-05-07T08:53:20;7.23;;;4.30;;
6053;SDS011;3055;50.886;14.814;2023-05-07T08:55:47;4.90;;;4.50;;
6053;SDS011;3055;50.886;14.814;2023-05-07T08:58:15;4.60;;;4.20;;
6053;SDS011;3055;50.886;14.814;2023-05-07T09:00:42;5.53;;;5.03;;
6053;SDS011;3055;50.886;14.814;2023-05-07T09:03:10;4.63;;;4.23;;
6053;SDS011;3055;50.886;14.814;2023-05-07T09:05:39;4.73;;;4.33;;
6053;SDS011;3055;50.886;14.814;2023-05-07T09:08:06;4.57;;;4.03;;
6053;SDS011;3055;50.886;14.814;2023-05-07T09:10:34;4.43;;;4.03;;
6053;SDS011;3055;50.886;14.814;2023-05-07T09:13:01;5.03;;;4.53;;
6053;SDS011;3055;50.886;14.814;2023-05-07T09:15:29;4.87;;;4.27;;
6053;SDS011;3055;50.886;14.814;2023-05-07T09:17:59;5.10;;;4.60;;
6053;SDS011;3055;50.886;14.814;2023-05-07T09:20:28;4.37;;;4.07;;
6053;SDS011;3055;50.886;14.814;2023-05-07T09:22:56;4.50;;;4.10;;
6053;SDS011;3055;50.886;14.814;2023-05-07T09:25:30;4.77;;;4.30;;
6053;SDS011;3055;50.886;14.814;2023-05-07T09:27:58;5.90;;;3.97;;
6053;SDS011;3055;50.886;14.814;2023-05-07T09:30:27;4.87;;;4.47;;
6053;SDS011;3055;50.886;14.814;2023-05-07T09:32:55;4.60;;;4.20;;
6053;SDS011;3055;50.886;14.814;2023-05-07T09:35:24;4.47;;;4.07;;
6053;SDS011;3055;50.886;14.814;2023-05-07T09:37:53;4.40;;;4.00;;
6053;SDS011;3055;50.886;14.814;2023-05-07T09:40:22;4.73;;;4.23;;
6053;SDS011;3055;50.886;14.814;2023-05-07T09:42:50;5.73;;;4.30;;
6053;SDS011;3055;50.886;14.814;2023-05-07T09:45:21;4.37;;;4.00;;
6053;SDS011;3055;50.886;14.814;2023-05-07T09:47:49;4.20;;;3.87;;
6053;SDS011;3055;50.886;14.814;2023-05-07T09:50:22;5.47;;;4.33;;
6053;SDS011;3055;50.886;14.814;2023-05-07T09:52:54;4.63;;;4.23;;
6053;SDS011;3055;50.886;14.814;2023-05-07T09:55:22;4.60;;;4.20;;
6053;SDS011;3055;50.886;14.814;2023-05-07T09:57:50;5.10;;;3.77;;
6053;SDS011;3055;50.886;14.814;2023-05-07T10:00:18;4.67;;;4.27;;
6053;SDS011;3055;50.886;14.814;2023-05-07T10:02:46;7.93;;;4.70;;
6053;SDS011;3055;50.886;14.814;2023-05-07T10:05:15;4.40;;;4.00;;
6053;SDS011;3055;50.886;14.814;2023-05-07T10:07:42;7.17;;;4.43;;
6053;SDS011;3055;50.886;14.814;2023-05-07T10:10:12;5.17;;;4.23;;
6053;SDS011;3055;50.886;14.814;2023-05-07T10:12:40;4.63;;;4.23;;
6053;SDS011;3055;50.886;14.814;2023-05-07T10:15:07;4.23;;;3.73;;
6053;SDS011;3055;50.886;14.814;2023-05-07T10:17:36;4.00;;;3.70;;
6053;SDS011;3055;50.886;14.814;2023-05-07T10:20:04;4.43;;;3.60;;
6053;SDS011;3055;50.886;14.814;2023-05-07T10:22:32;4.13;;;3.47;;
6053;SDS011;3055;50.886;14.814;2023-05-07T10:25:05;5.40;;;4.90;;
6053;SDS011;3055;50.886;14.814;2023-05-07T10:27:40;4.40;;;4.10;;
6053;SDS011;3055;50.886;14.814;2023-05-07T10:30:12;4.60;;;4.20;;
6053;SDS011;3055;50.886;14.814;2023-05-07T10:32:49;7.03;;;3.97;;
6053;SDS011;3055;50.886;14.814;2023-05-07T10:35:20;4.50;;;4.20;;
6053;SDS011;3055;50.886;14.814;2023-05-07T10:37:50;4.40;;;4.00;;
6053;SDS011;3055;50.886;14.814;2023-05-07T10:40:18;5.53;;;3.80;;
6053;SDS011;3055;50.886;14.814;2023-05-07T10:42:55;4.87;;;4.10;;
6053;SDS011;3055;50.886;14.814;2023-05-07T10:45:24;5.17;;;4.73;;
6053;SDS011;3055;50.886;14.814;2023-05-07T10:50:38;5.33;;;4.90;;
6053;SDS011;3055;50.886;14.814;2023-05-07T10:53:22;5.27;;;4.77;;
6053;SDS011;3055;50.886;14.814;2023-05-07T10:55:53;7.60;;;4.53;;
6053;SDS011;3055;50.886;14.814;2023-05-07T10:58:54;5.33;;;4.50;;
6053;SDS011;3055;50.886;14.814;2023-05-07T11:04:19;5.30;;;4.47;;
6053;SDS011;3055;50.886;14.814;2023-05-07T11:10:05;5.10;;;4.70;;
6053;SDS011;3055;50.886;14.814;2023-05-07T11:18:08;6.13;;;4.73;;
6053;SDS011;3055;50.886;14.814;2023-05-07T11:20:49;4.97;;;4.53;;
6053;SDS011;3055;50.886;14.814;2023-05-07T11:26:18;5.73;;;4.80;;
6053;SDS011;3055;50.886;14.814;2023-05-07T11:28:46;6.10;;;3.50;;
6053;SDS011;3055;50.886;14.814;2023-05-07T11:31:15;5.50;;;3.67;;
6053;SDS011;3055;50.886;14.814;2023-05-07T11:33:48;4.20;;;3.80;;
6053;SDS011;3055;50.886;14.814;2023-05-07T11:36:16;4.30;;;3.90;;
6053;SDS011;3055;50.886;14.814;2023-05-07T11:38:44;4.47;;;3.50;;
6053;SDS011;3055;50.886;14.814;2023-05-07T11:41:11;4.00;;;3.50;;
6053;SDS011;3055;50.886;14.814;2023-05-07T11:43:39;6.27;;;3.60;;
6053;SDS011;3055;50.886;14.814;2023-05-07T11:46:22;5.53;;;3.60;;
6053;SDS011;3055;50.886;14.814;2023-05-07T11:48:49;3.50;;;3.20;;
6053;SDS011;3055;50.886;14.814;2023-05-07T11:51:20;3.83;;;3.53;;
6053;SDS011;3055;50.886;14.814;2023-05-07T11:53:50;5.80;;;3.97;;
6053;SDS011;3055;50.886;14.814;2023-05-07T11:56:17;4.13;;;3.73;;
6053;SDS011;3055;50.886;14.814;2023-05-07T11:58:46;4.20;;;3.60;;
6053;SDS011;3055;50.886;14.814;2023-05-07T12:01:14;3.60;;;3.30;;
6053;SDS011;3055;50.886;14.814;2023-05-07T12:03:45;4.43;;;4.03;;
6053;SDS011;3055;50.886;14.814;2023-05-07T12:06:13;3.90;;;3.60;;
6053;SDS011;3055;50.886;14.814;2023-05-07T12:08:41;4.30;;;3.80;;
6053;SDS011;3055;50.886;14.814;2023-05-07T12:11:10;3.97;;;3.57;;
6053;SDS011;3055;50.886;14.814;2023-05-07T12:13:41;3.97;;;3.63;;
6053;SDS011;3055;50.886;14.814;2023-05-07T12:16:08;4.17;;;3.70;;
6053;SDS011;3055;50.886;14.814;2023-05-07T12:18:36;4.30;;;3.77;;
6053;SDS011;3055;50.886;14.814;2023-05-07T12:21:05;4.03;;;3.70;;
6053;SDS011;3055;50.886;14.814;2023-05-07T12:23:33;4.00;;;3.67;;
6053;SDS011;3055;50.886;14.814;2023-05-07T12:26:01;4.47;;;4.17;;
6053;SDS011;3055;50.886;14.814;2023-05-07T12:28:29;5.77;;;3.70;;
6053;SDS011;3055;50.886;14.814;2023-05-07T12:30:57;4.20;;;3.90;;
6053;SDS011;3055;50.886;14.814;2023-05-07T12:33:25;3.90;;;3.60;;
6053;SDS011;3055;50.886;14.814;2023-05-07T12:35:54;4.67;;;3.90;;
6053;SDS011;3055;50.886;14.814;2023-05-07T12:38:23;3.83;;;3.43;;
6053;SDS011;3055;50.886;14.814;2023-05-07T12:40:53;4.10;;;3.70;;
6053;SDS011;3055;50.886;14.814;2023-05-07T12:43:21;4.03;;;3.63;;
6053;SDS011;3055;50.886;14.814;2023-05-07T12:45:51;3.70;;;3.40;;
6053;SDS011;3055;50.886;14.814;2023-05-07T12:48:20;5.67;;;3.73;;
6053;SDS011;3055;50.886;14.814;2023-05-07T12:50:49;4.13;;;3.83;;
6053;SDS011;3055;50.886;14.814;2023-05-07T12:53:16;4.87;;;4.07;;
6053;SDS011;3055;50.886;14.814;2023-05-07T12:55:48;7.50;;;3.53;;
6053;SDS011;3055;50.886;14.814;2023-05-07T12:58:16;3.87;;;2.90;;
6053;SDS011;3055;50.886;14.814;2023-05-07T13:00:44;3.23;;;3.00;;
6053;SDS011;3055;50.886;14.814;2023-05-07T13:03:20;3.50;;;3.20;;
6053;SDS011;3055;50.886;14.814;2023-05-07T13:05:49;4.93;;;3.40;;
6053;SDS011;3055;50.886;14.814;2023-05-07T13:08:30;3.20;;;3.00;;
6053;SDS011;3055;50.886;14.814;2023-05-07T13:11:00;3.30;;;3.00;;
6053;SDS011;3055;50.886;14.814;2023-05-07T13:13:28;3.27;;;3.07;;
6053;SDS011;3055;50.886;14.814;2023-05-07T13:15:56;3.10;;;2.90;;
6053;SDS011;3055;50.886;14.814;2023-05-07T13:18:24;4.10;;;3.03;;
6053;SDS011;3055;50.886;14.814;2023-05-07T13:20:52;3.80;;;3.50;;
6053;SDS011;3055;50.886;14.814;2023-05-07T13:23:19;3.70;;;3.40;;
6053;SDS011;3055;50.886;14.814;2023-05-07T13:25:46;3.47;;;3.17;;
6053;SDS011;3055;50.886;14.814;2023-05-07T13:28:15;3.77;;;3.47;;
6053;SDS011;3055;50.886;14.814;2023-05-07T13:30:42;3.30;;;3.00;;
6053;SDS011;3055;50.886;14.814;2023-05-07T13:33:09;4.57;;;3.03;;
6053;SDS011;3055;50.886;14.814;2023-05-07T13:35:36;3.23;;;2.93;;
6053;SDS011;3055;50.886;14.814;2023-05-07T13:38:03;4.13;;;3.20;;
6053;SDS011;3055;50.886;14.814;2023-05-07T13:40:31;4.03;;;3.63;;
6053;SDS011;3055;50.886;14.814;2023-05-07T13:42:58;3.90;;;3.50;;
6053;SDS011;3055;50.886;14.814;2023-05-07T13:45:28;4.00;;;3.47;;
6053;SDS011;3055;50.886;14.814;2023-05-07T13:47:55;3.47;;;3.27;;
6053;SDS011;3055;50.886;14.814;2023-05-07T13:50:23;4.17;;;3.77;;
6053;SDS011;3055;50.886;14.814;2023-05-07T13:52:51;3.70;;;3.40;;
6053;SDS011;3055;50.886;14.814;2023-05-07T13:55:19;4.30;;;3.90;;
6053;SDS011;3055;50.886;14.814;2023-05-07T13:57:47;4.13;;;3.80;;
6053;SDS011;3055;50.886;14.814;2023-05-07T14:00:21;4.43;;;4.03;;
6053;SDS011;3055;50.886;14.814;2023-05-07T14:02:49;4.57;;;3.80;;
6053;SDS011;3055;50.886;14.814;2023-05-07T14:05:16;5.83;;;3.83;;
6053;SDS011;3055;50.886;14.814;2023-05-07T14:07:43;4.60;;;3.77;;
6053;SDS011;3055;50.886;14.814;2023-05-07T14:10:10;3.70;;;3.40;;
6053;SDS011;3055;50.886;14.814;2023-05-07T14:12:38;3.60;;;3.10;;
6053;SDS011;3055;50.886;14.814;2023-05-07T14:15:05;4.97;;;3.37;;
6053;SDS011;3055;50.886;14.814;2023-05-07T14:17:33;3.67;;;3.30;;
6053;SDS011;3055;50.886;14.814;2023-05-07T14:20:02;3.67;;;3.20;;
6053;SDS011;3055;50.886;14.814;2023-05-07T14:22:31;3.13;;;2.93;;
6053;SDS011;3055;50.886;14.814;2023-05-07T14:24:58;3.80;;;3.40;;
6053;SDS011;3055;50.886;14.814;2023-05-07T14:27:25;3.70;;;3.33;;
6053;SDS011;3055;50.886;14.814;2023-05-07T14:29:52;3.40;;;3.20;;
6053;SDS011;3055;50.886;14.814;2023-05-07T14:32:19;4.07;;;3.77;;
6053;SDS011;3055;50.886;14.814;2023-05-07T14:34:46;4.17;;;3.73;;
6053;SDS011;3055;50.886;14.814;2023-05-07T14:37:15;4.20;;;3.80;;
6053;SDS011;3055;50.886;14.814;2023-05-07T14:39:43;4.50;;;3.73;;
6053;SDS011;3055;50.886;14.814;2023-05-07T14:42:10;4.73;;;4.33;;
6053;SDS011;3055;50.886;14.814;2023-05-07T14:44:37;4.77;;;4.37;;
6053;SDS011;3055;50.886;14.814;2023-05-07T14:47:05;5.47;;;4.80;;
6053;SDS011;3055;50.886;14.814;2023-05-07T14:49:32;4.83;;;4.43;;
6053;SDS011;3055;50.886;14.814;2023-05-07T14:52:00;5.00;;;4.60;;
6053;SDS011;3055;50.886;14.814;2023-05-07T14:54:28;5.03;;;4.63;;
6053;SDS011;3055;50.886;14.814;2023-05-07T14:56:55;4.80;;;4.40;;
6053;SDS011;3055;50.886;14.814;2023-05-07T14:59:22;5.03;;;4.53;;
6053;SDS011;3055;50.886;14.814;2023-05-07T15:01:50;5.37;;;4.97;;
6053;SDS011;3055;50.886;14.814;2023-05-07T15:04:17;5.53;;;5.07;;
6053;SDS011;3055;50.886;14.814;2023-05-07T15:06:44;6.90;;;6.23;;
6053;SDS011;3055;50.886;14.814;2023-05-07T15:09:12;8.33;;;5.73;;
6053;SDS011;3055;50.886;14.814;2023-05-07T15:11:41;7.03;;;6.43;;
6053;SDS011;3055;50.886;14.814;2023-05-07T15:14:08;6.30;;;5.80;;